createdAt,value
2017-12-10T00:02:10.045Z,99.90
2017-12-10T00:04:38.439Z,99.90
2017-12-10T00:07:06.843Z,99.90
2017-12-10T00:09:35.353Z,99.90
2017-12-10T00:12:04.190Z,99.90
2017-12-10T00:14:33.345Z,99.90
2017-12-10T00:17:01.919Z,99.90
2017-12-10T00:19:30.309Z,99.90
2017-12-10T00:21:58.876Z,99.90
2017-12-10T00:24:27.270Z,99.90
2017-12-10T00:26:55.724Z,99.90
2017-12-10T00:29:24.125Z,99.90
2017-12-10T00:31:52.509Z,99.90
2017-12-10T00:34:21.392Z,99.90
2017-12-10T00:36:49.801Z,99.90
2017-12-10T00:39:18.227Z,99.90
2017-12-10T00:41:47.044Z,99.90
2017-12-10T00:44:15.422Z,99.90
2017-12-10T00:46:43.832Z,99.90
2017-12-10T00:49:13.007Z,99.90
2017-12-10T00:51:42.194Z,99.90
2017-12-10T00:54:10.633Z,99.90
2017-12-10T00:56:39.035Z,99.90
2017-12-10T00:59:07.415Z,99.90
2017-12-10T01:01:35.816Z,99.90
2017-12-10T01:04:04.236Z,99.90
2017-12-10T01:06:33.399Z,99.90
2017-12-10T01:09:01.782Z,99.90
2017-12-10T01:11:30.177Z,99.90
2017-12-10T01:13:58.579Z,99.90
2017-12-10T01:16:27.006Z,99.90
2017-12-10T01:18:55.505Z,99.90
2017-12-10T01:21:23.898Z,99.90
2017-12-10T01:23:53.039Z,99.90
2017-12-10T01:26:21.442Z,99.90
2017-12-10T01:28:49.845Z,99.90
2017-12-10T01:31:18.298Z,99.90
2017-12-10T01:33:46.710Z,99.90
2017-12-10T01:36:15.861Z,99.90
2017-12-10T01:38:45.869Z,99.90
2017-12-10T01:41:14.259Z,99.90
2017-12-10T01:43:42.680Z,99.90
2017-12-10T01:46:11.829Z,99.90
2017-12-10T01:48:40.273Z,99.90
2017-12-10T01:51:08.645Z,99.90
2017-12-10T01:53:37.076Z,99.90
2017-12-10T01:56:04.755Z,99.90
2017-12-10T01:58:33.144Z,99.90
2017-12-10T02:01:01.554Z,99.90
2017-12-10T02:03:29.931Z,99.90
2017-12-10T02:05:58.305Z,99.90
2017-12-10T02:08:26.715Z,99.90
2017-12-10T02:10:55.130Z,99.90
2017-12-10T02:13:23.646Z,99.90
2017-12-10T02:15:52.791Z,99.90
2017-12-10T02:18:21.231Z,99.90
2017-12-10T02:20:49.671Z,99.90
2017-12-10T02:23:18.074Z,99.90
2017-12-10T02:25:46.527Z,99.90
2017-12-10T02:28:14.914Z,99.90
2017-12-10T02:30:43.297Z,99.90
2017-12-10T02:33:11.721Z,99.90
2017-12-10T02:35:40.100Z,99.90
2017-12-10T02:38:08.512Z,99.90
2017-12-10T02:40:36.930Z,99.90
2017-12-10T02:43:06.099Z,99.90
2017-12-10T02:45:34.508Z,99.90
2017-12-10T02:48:02.895Z,99.90
2017-12-10T02:50:31.707Z,99.90
2017-12-10T02:53:00.083Z,99.90
2017-12-10T02:55:36.354Z,99.90
2017-12-10T02:58:04.750Z,99.90
2017-12-10T03:00:33.144Z,99.90
2017-12-10T03:03:01.560Z,99.90
2017-12-10T03:05:29.987Z,99.90
2017-12-10T03:07:58.655Z,99.90
2017-12-10T03:10:28.606Z,99.90
2017-12-10T03:12:56.972Z,99.90
2017-12-10T03:15:25.377Z,99.90
2017-12-10T03:17:53.752Z,99.90
2017-12-10T03:20:23.072Z,99.90
2017-12-10T03:22:51.455Z,99.90
2017-12-10T03:25:19.869Z,99.90
2017-12-10T03:27:48.270Z,99.90
2017-12-10T03:30:16.642Z,99.90
2017-12-10T03:32:45.086Z,99.90
2017-12-10T03:35:13.526Z,99.90
2017-12-10T03:37:41.873Z,99.90
2017-12-10T03:40:10.276Z,99.90
2017-12-10T03:42:38.658Z,99.90
2017-12-10T03:45:07.286Z,99.90
2017-12-10T03:47:35.691Z,99.90
2017-12-10T03:50:04.094Z,99.90
2017-12-10T03:52:32.536Z,99.90
2017-12-10T03:55:00.914Z,99.90
2017-12-10T03:57:29.449Z,99.90
2017-12-10T03:59:57.827Z,99.90
2017-12-10T04:02:27.018Z,99.90
2017-12-10T04:04:55.410Z,99.90
2017-12-10T04:07:24.585Z,99.90
2017-12-10T04:09:53.102Z,99.90
2017-12-10T04:12:21.558Z,99.90
2017-12-10T04:14:49.925Z,99.90
2017-12-10T04:17:18.347Z,99.90
2017-12-10T04:19:46.726Z,99.90
2017-12-10T04:22:15.174Z,99.90
2017-12-10T04:24:44.371Z,99.90
2017-12-10T04:29:48.203Z,99.90
2017-12-10T04:32:17.382Z,99.90
2017-12-10T04:34:45.896Z,99.90
2017-12-10T04:37:14.299Z,99.90
2017-12-10T04:39:42.697Z,99.90
2017-12-10T04:42:11.138Z,99.90
2017-12-10T04:44:39.521Z,99.90
2017-12-10T04:47:07.989Z,99.90
2017-12-10T04:49:36.375Z,99.90
2017-12-10T04:52:04.753Z,99.90
2017-12-10T04:54:33.150Z,99.90
2017-12-10T04:57:01.566Z,99.90
2017-12-10T04:59:30.756Z,99.90
2017-12-10T05:01:59.567Z,99.90
2017-12-10T05:04:29.520Z,99.90
2017-12-10T05:06:58.456Z,99.90
2017-12-10T05:09:27.312Z,99.90
2017-12-10T05:11:56.374Z,99.90
2017-12-10T05:14:25.974Z,99.90
2017-12-10T05:16:55.650Z,99.90
2017-12-10T05:19:24.561Z,99.90
2017-12-10T05:21:53.393Z,99.90
2017-12-10T05:24:22.295Z,99.90
2017-12-10T05:26:50.674Z,99.90
2017-12-10T05:29:19.261Z,99.90
2017-12-10T05:31:47.656Z,99.90
2017-12-10T05:34:16.078Z,99.90
2017-12-10T05:36:45.275Z,99.90
2017-12-10T05:39:14.421Z,99.90
2017-12-10T05:41:43.098Z,99.90
2017-12-10T05:44:11.499Z,99.90
2017-12-10T05:46:39.883Z,99.90
2017-12-10T05:49:08.300Z,99.90
2017-12-10T05:51:36.676Z,99.90
2017-12-10T05:54:05.713Z,99.90
2017-12-10T05:56:34.107Z,99.90
2017-12-10T05:59:02.494Z,99.90
2017-12-10T06:01:30.900Z,99.90
2017-12-10T06:04:00.073Z,99.90
2017-12-10T06:06:28.615Z,99.90
2017-12-10T06:08:57.012Z,99.90
2017-12-10T06:11:25.437Z,99.90
2017-12-10T06:13:53.851Z,99.90
2017-12-10T06:16:22.247Z,99.90
2017-12-10T06:18:50.842Z,99.90
2017-12-10T06:21:19.219Z,99.90
2017-12-10T06:23:47.602Z,99.90
2017-12-10T06:26:16.018Z,99.90
2017-12-10T06:28:45.166Z,99.90
2017-12-10T06:31:13.591Z,99.90
2017-12-10T06:33:41.969Z,99.90
2017-12-10T06:36:11.269Z,99.90
2017-12-10T06:38:40.430Z,99.90
2017-12-10T06:41:08.820Z,99.90
2017-12-10T06:43:37.454Z,99.90
2017-12-10T06:46:05.839Z,99.90
2017-12-10T06:48:34.245Z,99.90
2017-12-10T06:51:02.646Z,99.90
2017-12-10T06:53:31.059Z,99.90
2017-12-10T06:55:59.655Z,99.90
2017-12-10T06:58:28.038Z,99.90
2017-12-10T07:00:56.418Z,99.90
2017-12-10T07:03:24.855Z,99.90
2017-12-10T07:05:53.273Z,99.90
2017-12-10T07:08:22.016Z,99.90
2017-12-10T07:10:50.382Z,99.90
2017-12-10T07:13:18.779Z,99.90
2017-12-10T07:15:48.021Z,99.30
2017-12-10T07:18:16.418Z,99.20
2017-12-10T07:20:44.935Z,98.20
2017-12-10T07:23:14.143Z,96.00
2017-12-10T07:25:43.296Z,94.30
2017-12-10T07:28:11.695Z,94.30
2017-12-10T07:30:40.102Z,93.40
2017-12-10T07:33:08.531Z,92.90
2017-12-10T07:35:37.001Z,91.70
2017-12-10T07:38:05.377Z,90.20
2017-12-10T07:40:34.600Z,89.20
2017-12-10T07:43:03.808Z,90.10
2017-12-10T07:45:32.194Z,90.10
2017-12-10T07:48:01.408Z,90.30
2017-12-10T07:50:29.816Z,90.20
2017-12-10T07:52:58.196Z,90.50
2017-12-10T07:55:26.601Z,90.80
2017-12-10T07:57:54.972Z,90.20
2017-12-10T08:00:23.373Z,89.90
2017-12-10T08:02:51.849Z,85.00
2017-12-10T08:05:20.215Z,82.40
2017-12-10T08:07:48.622Z,84.40
2017-12-10T08:10:17.095Z,82.90
2017-12-10T08:12:45.541Z,84.80
2017-12-10T08:15:13.911Z,87.60
2017-12-10T08:17:42.387Z,89.30
2017-12-10T08:20:10.812Z,90.20
2017-12-10T08:22:39.218Z,89.30
2017-12-10T08:25:08.772Z,88.10
2017-12-10T08:27:37.154Z,88.10
2017-12-10T08:30:05.529Z,88.00
2017-12-10T08:32:34.185Z,88.10
2017-12-10T08:35:02.554Z,86.60
2017-12-10T08:37:30.966Z,83.80
2017-12-10T08:39:59.336Z,79.80
2017-12-10T08:42:27.698Z,76.80
2017-12-10T08:44:56.134Z,71.70
2017-12-10T08:47:25.287Z,70.20
2017-12-10T08:49:53.706Z,70.00
2017-12-10T08:52:22.106Z,70.50
2017-12-10T08:54:51.247Z,69.50
2017-12-10T08:57:19.636Z,69.40
2017-12-10T08:59:48.813Z,71.30
2017-12-10T09:02:17.200Z,71.30
2017-12-10T09:04:45.575Z,73.30
2017-12-10T09:07:14.010Z,75.10
2017-12-10T09:09:42.374Z,75.80
2017-12-10T09:12:11.622Z,76.70
2017-12-10T09:14:40.034Z,76.60
2017-12-10T09:17:09.210Z,76.10
2017-12-10T09:19:37.596Z,77.50
2017-12-10T09:22:06.124Z,79.20
2017-12-10T09:24:34.524Z,77.30
2017-12-10T09:27:03.797Z,76.00
2017-12-10T09:29:32.462Z,79.20
2017-12-10T09:32:00.924Z,81.30
2017-12-10T09:34:34.746Z,81.70
2017-12-10T09:37:03.566Z,83.20
2017-12-10T09:39:32.070Z,84.00
2017-12-10T09:42:02.227Z,84.40
2017-12-10T09:44:30.678Z,86.60
2017-12-10T09:46:59.184Z,87.10
2017-12-10T09:49:28.351Z,87.00
2017-12-10T09:51:57.519Z,87.50
2017-12-10T09:54:26.921Z,85.80
2017-12-10T09:56:55.302Z,85.70
2017-12-10T09:59:23.756Z,85.40
2017-12-10T10:01:53.646Z,85.60
2017-12-10T10:04:22.085Z,87.80
2017-12-10T10:06:50.674Z,88.60
2017-12-10T10:09:19.119Z,88.60
2017-12-10T10:11:47.512Z,89.20
2017-12-10T10:14:16.742Z,88.90
2017-12-10T10:16:45.293Z,88.90
2017-12-10T10:19:15.297Z,88.20
2017-12-10T10:21:44.571Z,88.20
2017-12-10T10:24:15.906Z,88.20
2017-12-10T10:26:45.267Z,87.60
2017-12-10T10:29:13.820Z,86.60
2017-12-10T10:31:43.161Z,85.80
2017-12-10T10:34:11.593Z,85.80
2017-12-10T10:36:41.914Z,85.20
2017-12-10T10:39:10.310Z,85.40
2017-12-10T10:41:39.279Z,84.80
2017-12-10T10:44:07.667Z,85.50
2017-12-10T10:46:36.113Z,86.10
2017-12-10T10:49:04.830Z,84.90
2017-12-10T10:51:33.808Z,85.70
2017-12-10T10:54:02.481Z,84.90
2017-12-10T10:56:31.125Z,84.80
2017-12-10T10:58:59.553Z,84.70
2017-12-10T11:01:28.066Z,84.50
2017-12-10T11:03:56.477Z,84.50
2017-12-10T11:06:25.153Z,84.90
2017-12-10T11:08:54.375Z,82.70
2017-12-10T11:11:22.792Z,82.70
2017-12-10T11:13:51.395Z,81.70
2017-12-10T11:16:19.959Z,81.70
2017-12-10T11:18:48.428Z,83.20
2017-12-10T11:23:52.662Z,83.70
2017-12-10T11:26:21.103Z,83.70
2017-12-10T11:28:49.482Z,84.80
2017-12-10T11:31:17.908Z,84.20
2017-12-10T11:33:46.307Z,85.60
2017-12-10T11:36:14.768Z,84.40
2017-12-10T11:38:43.157Z,84.90
2017-12-10T11:41:11.686Z,86.10
2017-12-10T11:43:40.147Z,85.60
2017-12-10T11:46:08.742Z,83.10
2017-12-10T11:48:37.464Z,84.50
2017-12-10T11:51:05.916Z,83.20
2017-12-10T11:53:34.394Z,82.90
2017-12-10T11:56:02.816Z,83.90
2017-12-10T11:58:31.358Z,82.80
2017-12-10T12:01:00.048Z,85.20
2017-12-10T12:03:28.602Z,89.30
2017-12-10T12:05:57.814Z,94.20
2017-12-10T12:08:26.544Z,94.20
2017-12-10T12:10:55.045Z,95.50
2017-12-10T12:13:23.785Z,97.20
2017-12-10T12:15:52.310Z,99.40
2017-12-10T12:18:20.856Z,99.90
2017-12-10T12:20:49.361Z,99.90
2017-12-10T12:23:17.810Z,99.90
2017-12-10T12:25:46.355Z,99.90
2017-12-10T12:28:16.383Z,99.90
2017-12-10T12:30:45.574Z,99.90
2017-12-10T12:33:13.984Z,99.90
2017-12-10T12:35:42.417Z,99.90
2017-12-10T12:38:11.310Z,99.90
2017-12-10T12:40:39.722Z,99.90
2017-12-10T12:43:08.532Z,99.90
2017-12-10T12:45:37.224Z,99.90
2017-12-10T12:48:05.667Z,99.90
2017-12-10T12:50:34.601Z,99.90
2017-12-10T12:53:03.373Z,99.90
2017-12-10T12:55:31.928Z,99.90
2017-12-10T12:58:01.134Z,99.90
2017-12-10T13:00:29.556Z,99.90
2017-12-10T13:02:58.416Z,99.90
2017-12-10T13:05:27.657Z,99.90
2017-12-10T13:07:56.356Z,99.90
2017-12-10T13:10:24.811Z,99.90
2017-12-10T13:12:53.202Z,99.90
2017-12-10T13:15:21.680Z,99.90
2017-12-10T13:17:50.241Z,99.90
2017-12-10T13:20:18.907Z,99.90
2017-12-10T13:22:47.299Z,99.90
2017-12-10T13:25:15.762Z,99.90
2017-12-10T13:27:44.175Z,99.90
2017-12-10T13:30:13.029Z,99.90
2017-12-10T13:32:41.692Z,99.90
2017-12-10T13:35:10.869Z,99.90
2017-12-10T13:37:39.723Z,99.90
2017-12-10T13:40:08.161Z,99.90
2017-12-10T13:42:36.549Z,99.90
2017-12-10T13:45:05.760Z,99.90
2017-12-10T13:47:34.135Z,99.90
2017-12-10T13:50:02.536Z,99.90
2017-12-10T13:52:31.729Z,99.90
2017-12-10T13:55:00.212Z,99.90
2017-12-10T13:57:28.672Z,99.90
2017-12-10T13:59:57.076Z,99.90
2017-12-10T14:02:25.536Z,99.90
2017-12-10T14:04:53.967Z,99.90
2017-12-10T14:07:22.565Z,99.90
2017-12-10T14:09:51.227Z,99.90
2017-12-10T14:12:19.703Z,99.90
2017-12-10T14:14:48.143Z,99.90
2017-12-10T14:17:16.574Z,99.90
2017-12-10T14:19:45.020Z,99.90
2017-12-10T14:22:13.515Z,99.90
2017-12-10T14:24:41.958Z,99.90
2017-12-10T14:27:10.363Z,99.90
2017-12-10T14:29:38.810Z,99.90
2017-12-10T14:32:07.209Z,99.90
2017-12-10T14:34:36.231Z,99.90
2017-12-10T14:37:04.971Z,99.90
2017-12-10T14:39:33.351Z,99.90
2017-12-10T14:42:01.774Z,99.90
2017-12-10T14:44:30.184Z,99.90
2017-12-10T14:46:59.753Z,99.90
2017-12-10T14:49:28.236Z,99.90
2017-12-10T14:51:56.928Z,99.90
2017-12-10T14:54:25.411Z,99.90
2017-12-10T14:56:53.875Z,99.90
2017-12-10T14:59:24.801Z,99.90
2017-12-10T15:01:58.540Z,99.90
2017-12-10T15:04:27.326Z,99.90
2017-12-10T15:06:55.746Z,99.90
2017-12-10T15:09:24.236Z,99.90
2017-12-10T15:11:53.007Z,99.90
2017-12-10T15:14:21.451Z,99.90
2017-12-10T15:16:50.099Z,99.90
2017-12-10T15:19:19.084Z,99.90
2017-12-10T15:21:47.763Z,99.90
2017-12-10T15:24:17.007Z,99.90
2017-12-10T15:26:45.452Z,99.90
2017-12-10T15:29:14.058Z,99.90
2017-12-10T15:31:43.458Z,99.90
2017-12-10T15:34:11.851Z,99.90
2017-12-10T15:36:43.007Z,99.90
2017-12-10T15:39:11.622Z,99.90
2017-12-10T15:41:40.263Z,99.90
2017-12-10T15:44:08.787Z,99.90
2017-12-10T15:46:37.990Z,99.90
2017-12-10T15:49:06.421Z,99.90
2017-12-10T15:51:35.058Z,99.90
2017-12-10T15:54:04.433Z,99.90
2017-12-10T15:56:32.931Z,99.90
2017-12-10T15:59:01.952Z,99.90
2017-12-10T16:01:31.417Z,99.90
2017-12-10T16:04:01.265Z,99.90
2017-12-10T16:06:31.252Z,99.90
2017-12-10T16:09:01.258Z,99.90
2017-12-10T16:11:30.558Z,99.90
2017-12-10T16:13:59.681Z,99.90
2017-12-10T16:16:28.815Z,99.90
2017-12-10T16:18:59.230Z,99.90
2017-12-10T16:21:28.617Z,99.90
2017-12-10T16:23:57.546Z,99.90
2017-12-10T16:26:26.157Z,99.90
2017-12-10T16:28:55.190Z,99.90
2017-12-10T16:31:32.144Z,99.90
2017-12-10T16:34:01.089Z,99.90
2017-12-10T16:36:29.580Z,99.90
2017-12-10T16:38:58.243Z,99.90
2017-12-10T16:41:27.367Z,99.90
2017-12-10T16:43:57.991Z,99.90
2017-12-10T16:46:27.420Z,99.90
2017-12-10T16:48:56.246Z,99.90
2017-12-10T16:51:25.646Z,99.90
2017-12-10T16:53:54.472Z,99.90
2017-12-10T16:56:23.373Z,99.90
2017-12-10T16:58:52.165Z,99.90
2017-12-10T17:01:22.795Z,99.90
2017-12-10T17:03:51.275Z,99.90
2017-12-10T17:06:20.291Z,99.90
2017-12-10T17:08:49.070Z,99.90
2017-12-10T17:11:17.895Z,99.90
2017-12-10T17:13:46.990Z,99.90
2017-12-10T17:16:15.960Z,99.90
2017-12-10T17:18:44.979Z,99.90
2017-12-10T17:21:14.941Z,99.90
2017-12-10T17:23:44.152Z,99.90
2017-12-10T17:26:13.402Z,99.90
2017-12-10T17:28:42.368Z,99.90
2017-12-10T17:31:11.115Z,99.90
2017-12-10T17:33:39.670Z,99.90
2017-12-10T17:36:08.298Z,99.90
2017-12-10T17:38:37.266Z,99.90
2017-12-10T17:41:06.193Z,99.90
2017-12-10T17:43:34.958Z,99.90
2017-12-10T17:46:04.037Z,99.90
2017-12-10T17:48:34.057Z,99.90
2017-12-10T17:51:04.172Z,99.90
2017-12-10T17:53:33.957Z,99.90
2017-12-10T17:56:03.191Z,99.90
2017-12-10T17:58:32.095Z,99.90
2017-12-10T18:01:01.293Z,99.90
2017-12-10T18:03:29.901Z,99.90
2017-12-10T18:05:58.406Z,99.90
2017-12-10T18:08:26.864Z,99.90
2017-12-10T18:10:55.506Z,99.90
2017-12-10T18:13:23.946Z,99.90
2017-12-10T18:15:52.641Z,99.90
2017-12-10T18:18:21.225Z,99.90
2017-12-10T18:20:49.860Z,99.90
2017-12-10T18:23:20.822Z,99.90
2017-12-10T18:25:49.700Z,99.90
2017-12-10T18:28:18.385Z,99.90
2017-12-10T18:30:47.628Z,99.90
2017-12-10T18:33:16.617Z,99.90
2017-12-10T18:35:46.196Z,99.90
2017-12-10T18:38:14.768Z,99.90
2017-12-10T18:40:43.288Z,99.90
2017-12-10T18:43:11.792Z,99.90
2017-12-10T18:45:40.605Z,99.90
2017-12-10T18:48:09.673Z,99.90
2017-12-10T18:50:38.573Z,99.90
2017-12-10T18:53:08.542Z,99.90
2017-12-10T18:55:37.288Z,99.90
2017-12-10T18:58:06.974Z,99.90
2017-12-10T19:00:35.843Z,99.90
2017-12-10T19:03:05.728Z,99.90
2017-12-10T19:05:34.622Z,99.90
2017-12-10T19:08:03.211Z,99.90
2017-12-10T19:10:31.879Z,99.90
2017-12-10T19:13:00.398Z,99.90
2017-12-10T19:15:29.272Z,99.90
2017-12-10T19:17:58.043Z,99.90
2017-12-10T19:20:26.650Z,99.90
2017-12-10T19:22:55.331Z,99.90
2017-12-10T19:25:24.233Z,99.90
2017-12-10T19:27:53.003Z,99.90
2017-12-10T19:30:21.766Z,99.90
2017-12-10T19:32:50.696Z,99.90
2017-12-10T19:35:19.802Z,99.90
2017-12-10T19:37:48.581Z,99.90
2017-12-10T19:40:17.576Z,99.90
2017-12-10T19:42:46.384Z,99.90
2017-12-10T19:45:15.565Z,99.90
2017-12-10T19:47:44.091Z,99.90
2017-12-10T19:50:12.881Z,99.90
2017-12-10T19:52:41.503Z,99.90
2017-12-10T19:55:10.016Z,99.90
2017-12-10T19:57:38.674Z,99.90
2017-12-10T20:00:07.370Z,99.90
2017-12-10T20:02:36.251Z,99.90
2017-12-10T20:05:05.091Z,99.90
2017-12-10T20:07:33.578Z,99.90
2017-12-10T20:10:02.483Z,99.90
2017-12-10T20:12:31.336Z,99.90
2017-12-10T20:15:00.300Z,99.90
2017-12-10T20:17:29.146Z,99.90
2017-12-10T20:19:58.096Z,99.90
2017-12-10T20:22:27.558Z,99.90
2017-12-10T20:24:57.293Z,99.90
2017-12-10T20:27:26.387Z,99.90
2017-12-10T20:29:55.231Z,99.90
2017-12-10T20:32:24.283Z,99.90
2017-12-10T20:34:53.130Z,99.90
2017-12-10T20:37:22.020Z,99.90
2017-12-10T20:39:50.864Z,99.90
2017-12-10T20:42:19.762Z,99.90
2017-12-10T20:44:48.641Z,99.90
2017-12-10T20:47:17.205Z,99.90
2017-12-10T20:49:45.744Z,99.90
2017-12-10T20:52:14.232Z,99.90
2017-12-10T20:54:42.955Z,99.90
2017-12-10T20:57:11.469Z,99.90
2017-12-10T20:59:41.616Z,99.90
2017-12-10T21:02:10.526Z,99.90
2017-12-10T21:04:39.923Z,99.90
2017-12-10T21:07:08.951Z,99.90
2017-12-10T21:09:38.718Z,99.90
2017-12-10T21:12:07.704Z,99.90
2017-12-10T21:14:36.673Z,99.90
2017-12-10T21:17:05.415Z,99.90
2017-12-10T21:19:34.960Z,99.90
2017-12-10T21:22:03.785Z,99.90
2017-12-10T21:24:32.843Z,99.90
2017-12-10T21:27:01.398Z,99.90
2017-12-10T21:29:30.344Z,99.90
2017-12-10T21:31:59.104Z,99.90
2017-12-10T21:34:28.097Z,99.90
2017-12-10T21:36:57.212Z,99.90
2017-12-10T21:39:28.917Z,99.90
2017-12-10T21:41:59.644Z,99.90
2017-12-10T21:44:30.879Z,99.90
2017-12-10T21:47:00.732Z,99.90
2017-12-10T21:49:30.031Z,99.90
2017-12-10T21:51:59.069Z,99.90
2017-12-10T21:54:27.970Z,99.90
2017-12-10T21:56:56.977Z,99.90
2017-12-10T21:59:26.011Z,99.90
2017-12-10T22:01:54.864Z,99.90
2017-12-10T22:04:23.872Z,99.90
2017-12-10T22:06:54.203Z,99.90
2017-12-10T22:09:24.457Z,99.90
2017-12-10T22:12:03.829Z,99.90
2017-12-10T22:14:33.294Z,99.90
2017-12-10T22:17:02.252Z,99.90
2017-12-10T22:19:31.060Z,99.90
2017-12-10T22:22:00.821Z,99.90
2017-12-10T22:24:30.563Z,99.90
2017-12-10T22:27:00.320Z,99.90
2017-12-10T22:29:29.500Z,99.90
2017-12-10T22:31:58.004Z,99.90
2017-12-10T22:34:26.905Z,99.90
2017-12-10T22:36:55.416Z,99.90
2017-12-10T22:39:24.618Z,99.90
2017-12-10T22:41:53.814Z,99.90
2017-12-10T22:44:22.897Z,99.90
2017-12-10T22:46:51.696Z,99.90
2017-12-10T22:49:20.659Z,99.90
2017-12-10T22:51:49.764Z,99.90
2017-12-10T22:54:18.742Z,99.90
2017-12-10T22:56:47.984Z,99.90
2017-12-10T22:59:16.474Z,99.90
2017-12-10T23:01:45.078Z,99.90
2017-12-10T23:04:13.736Z,99.90
2017-12-10T23:06:43.701Z,99.90
2017-12-10T23:09:12.411Z,99.90
2017-12-10T23:11:40.926Z,99.90
2017-12-10T23:14:09.637Z,99.90
2017-12-10T23:16:38.392Z,99.90
2017-12-10T23:19:07.603Z,99.90
2017-12-10T23:21:36.098Z,99.90
2017-12-10T23:24:05.726Z,99.90
2017-12-10T23:26:34.162Z,99.90
2017-12-10T23:29:03.931Z,99.90
2017-12-10T23:31:34.188Z,99.90
2017-12-10T23:34:03.715Z,99.90
2017-12-10T23:36:32.478Z,99.90
2017-12-10T23:39:05.358Z,99.90
2017-12-10T23:41:34.053Z,99.90
2017-12-10T23:44:03.191Z,99.90
2017-12-10T23:46:31.640Z,99.90
2017-12-10T23:49:00.046Z,99.90
2017-12-10T23:51:28.768Z,99.90
2017-12-10T23:54:00.604Z,99.90
2017-12-10T23:56:34.156Z,99.90
2017-12-10T23:59:05.718Z,99.90
